JST312 YBBN-YSSY
Flight info
| Callsign | JST312 |
|---|---|
| Flight time | N/A |
| Altitude | 38000 |
| Route | BN H91 IGDAM/N0449F370 H652 TESAT |
| Aircraft | A320/M-SDE3FGHIRWY/LB1 |
Departure
| Time | 2026-05-01 07:59 |
|---|---|
| Airport | Brisbane International Airport (YBBN) |
Arrival
| Time | N/A |
|---|---|
| Airport | Sydney Kingsford Smith International Airport (YSSY) |
| Time | Latitude | Longitude | Altitude | Speed | Heading |
|---|---|---|---|---|---|
| 2026-05-01 07:36 | -27.38616 | 153.12076 | 21 ft | 0 kts | 307° |
| 2026-05-01 07:37 | -27.38616 | 153.12075 | 22 ft | 0 kts | 307° |
| 2026-05-01 07:47 | -27.38620 | 153.12082 | 21 ft | 3 kts | 307° |
| 2026-05-01 07:47 | -27.38632 | 153.12100 | 0 ft | 3 kts | 318° |
| 2026-05-01 07:47 | -27.38645 | 153.12108 | 25 ft | 2 kts | 12° |
| 2026-05-01 07:47 | -27.38663 | 153.12103 | 22 ft | 3 kts | 14° |
| 2026-05-01 07:48 | -27.38703 | 153.12092 | 23 ft | 3 kts | 14° |
| 2026-05-01 07:48 | -27.38722 | 153.12087 | 24 ft | 2 kts | 14° |
| 2026-05-01 07:48 | -27.38739 | 153.12083 | 22 ft | 3 kts | 357° |
| 2026-05-01 07:49 | -27.38759 | 153.12087 | 23 ft | 3 kts | 335° |
| 2026-05-01 07:49 | -27.38787 | 153.12109 | 21 ft | 1 kts | 314° |
| 2026-05-01 07:52 | -27.38773 | 153.12162 | 21 ft | 13 kts | 97° |
| 2026-05-01 07:52 | -27.38786 | 153.12233 | 21 ft | 10 kts | 99° |
| 2026-05-01 07:52 | -27.38757 | 153.12328 | 22 ft | 16 kts | 36° |
| 2026-05-01 07:53 | -27.38536 | 153.12453 | 21 ft | 20 kts | 26° |
| 2026-05-01 07:53 | -27.38408 | 153.12527 | 22 ft | 21 kts | 27° |
| 2026-05-01 07:53 | -27.38267 | 153.12608 | 21 ft | 24 kts | 27° |
| 2026-05-01 07:53 | -27.38114 | 153.12695 | 21 ft | 26 kts | 27° |
| 2026-05-01 07:54 | -27.38010 | 153.12873 | 21 ft | 10 kts | 122° |
| 2026-05-01 07:55 | -27.38056 | 153.12957 | 22 ft | 0 kts | 116° |
| 2026-05-01 07:57 | -27.38068 | 153.12985 | 21 ft | 10 kts | 116° |
| 2026-05-01 07:57 | -27.38155 | 153.13039 | 22 ft | 0 kts | 206° |
| 2026-05-01 07:58 | -27.38163 | 153.13035 | 22 ft | 5 kts | 206° |
| 2026-05-01 07:58 | -27.39308 | 153.12383 | 106 ft | 159 kts | 206° |
| 2026-05-01 07:59 | -27.40985 | 153.11416 | 1562 ft | 170 kts | 201° |
| 2026-05-01 07:59 | -27.43341 | 153.10598 | 3213 ft | 190 kts | 165° |
| 2026-05-01 08:00 | -27.48419 | 153.13936 | 6211 ft | 223 kts | 145° |
| 2026-05-01 08:01 | -27.53432 | 153.14065 | 8084 ft | 277 kts | 188° |
| 2026-05-01 08:01 | -27.55331 | 153.13580 | 8930 ft | 282 kts | 190° |
| 2026-05-01 08:01 | -27.57222 | 153.12879 | 9784 ft | 289 kts | 195° |
| 2026-05-01 08:02 | -27.61225 | 153.11306 | 10645 ft | 327 kts | 195° |
| 2026-05-01 08:02 | -27.63436 | 153.10485 | 11115 ft | 339 kts | 194° |
| 2026-05-01 08:03 | -27.68017 | 153.08948 | 12557 ft | 347 kts | 193° |
| 2026-05-01 08:03 | -27.70350 | 153.08192 | 13304 ft | 350 kts | 194° |
| 2026-05-01 08:03 | -27.75068 | 153.06647 | 14681 ft | 356 kts | 194° |
| 2026-05-01 08:04 | -27.79866 | 153.05053 | 15934 ft | 362 kts | 195° |
| 2026-05-01 08:04 | -27.84704 | 153.03279 | 17196 ft | 369 kts | 199° |
| 2026-05-01 08:05 | -27.89499 | 153.01141 | 18442 ft | 376 kts | 201° |
| 2026-05-01 08:05 | -27.91925 | 153.00024 | 19015 ft | 379 kts | 201° |
| 2026-05-01 08:05 | -27.94376 | 152.98909 | 19592 ft | 381 kts | 200° |
| 2026-05-01 08:06 | -27.99332 | 152.96703 | 20760 ft | 385 kts | 200° |
| 2026-05-01 08:06 | -28.04355 | 152.94502 | 21856 ft | 389 kts | 201° |
| 2026-05-01 08:07 | -28.09438 | 152.92281 | 22934 ft | 394 kts | 201° |
| 2026-05-01 08:07 | -28.14582 | 152.90015 | 23931 ft | 399 kts | 201° |